Time;durP1;ratioP1;P1;durP2;ratioP2;P2;SDS_P1;SDS_P2;PMS_P1;PMS_P2;Temp;Humidity;BMP_temperature;BMP_pressure;BME280_temperature;BME280_humidity;BME280_pressure;Samples;Min_cycle;Max_cycle;Signal;HPM_P1;HPM_P2
2020/12/05 00:03:04;;;;;;;23.93;13.23;;;;;;;-0.14;100.00;95980.38;3760597;79;43996;-22
2020/12/05 00:08:10;;;;;;;24.83;14.00;;;;;;;-0.03;100.00;95988.06;3759764;77;43689;-23
2020/12/05 00:13:16;;;;;;;21.90;12.90;;;;;;;0.17;100.00;95985.71;3755528;77;43737;-23
2020/12/05 00:18:23;;;;;;;25.27;14.03;;;;;;;0.27;100.00;95981.98;3730663;78;44104;-23
2020/12/05 00:23:28;;;;;;;25.77;13.33;;;;;;;0.40;100.00;95986.02;3711094;78;43698;-22
2020/12/05 00:28:36;;;;;;;22.20;12.17;;;;;;;0.42;100.00;96002.55;3689212;80;44364;-22
2020/12/05 00:33:42;;;;;;;21.33;12.77;;;;;;;0.38;100.00;95992.77;3702580;80;44101;-22
2020/12/05 00:38:48;;;;;;;23.33;12.77;;;;;;;0.30;100.00;95986.94;3707753;79;44084;-22
2020/12/05 00:43:54;;;;;;;22.80;12.33;;;;;;;0.25;100.00;95996.34;3703357;79;43656;-22
2020/12/05 00:49:01;;;;;;;24.27;13.03;;;;;;;0.21;100.00;95988.39;3702990;79;26448;-22
2020/12/05 00:54:08;;;;;;;23.87;12.87;;;;;;;0.11;100.00;95965.52;3715898;78;43694;-22
2020/12/05 00:59:15;;;;;;;22.87;13.07;;;;;;;0.03;100.00;95964.12;3715963;78;44005;-22
2020/12/05 01:04:20;;;;;;;26.20;13.13;;;;;;;0.24;100.00;95996.84;3702694;80;44056;-22
2020/12/05 01:09:26;;;;;;;22.97;13.30;;;;;;;0.33;100.00;95993.76;3708878;79;43694;-22
2020/12/05 01:14:32;;;;;;;27.23;13.30;;;;;;;0.30;100.00;95973.70;3702501;79;43676;-22
2020/12/05 01:19:38;;;;;;;22.17;12.83;;;;;;;0.34;100.00;95989.28;3740430;79;43991;-22
2020/12/05 01:24:44;;;;;;;25.27;13.37;;;;;;;0.32;100.00;95981.50;3765826;77;43635;-22
2020/12/05 01:29:50;;;;;;;22.47;12.53;;;;;;;0.41;100.00;96016.81;3760396;77;43403;-22
2020/12/05 01:34:55;;;;;;;22.70;12.77;;;;;;;0.42;100.00;96013.15;3760765;79;44019;-23
2020/12/05 01:40:02;;;;;;;23.33;13.00;;;;;;;0.46;100.00;96010.53;3768000;77;43669;-23
2020/12/05 01:45:07;;;;;;;25.57;14.17;;;;;;;0.42;100.00;96013.15;3761147;79;44060;-23
2020/12/05 01:50:13;;;;;;;23.63;13.13;;;;;;;0.50;100.00;96024.28;3761144;79;43157;-22
2020/12/05 01:55:20;;;;;;;23.17;12.80;;;;;;;0.54;100.00;96019.02;3756006;77;44752;-22
2020/12/05 02:00:26;;;;;;;24.73;12.97;;;;;;;0.56;100.00;96040.38;3723360;77;43495;-22
2020/12/05 02:05:41;;;;;;;22.93;12.63;;;;;;;0.59;100.00;96055.97;3761744;79;44011;-22
2020/12/05 02:10:50;;;;;;;25.40;13.43;;;;;;;0.58;100.00;96033.11;3769583;77;44038;-22
2020/12/05 02:15:58;;;;;;;25.30;13.93;;;;;;;0.59;100.00;95956.63;3760572;79;43717;-22
2020/12/05 02:21:06;;;;;;;25.30;13.53;;;;;;;0.79;100.00;95946.26;3712650;78;44154;-22
2020/12/05 02:26:13;;;;;;;25.60;14.33;;;;;;;0.94;100.00;95881.03;3716044;79;43718;-23
2020/12/05 02:31:19;;;;;;;25.43;13.97;;;;;;;1.04;100.00;95867.59;3701886;78;44073;-22
2020/12/05 02:36:25;;;;;;;25.83;14.80;;;;;;;1.02;100.00;95902.72;3708102;80;43710;-22
2020/12/05 02:41:33;;;;;;;25.17;13.77;;;;;;;0.93;100.00;95900.58;3715743;79;44010;-22
2020/12/05 02:46:39;;;;;;;23.10;13.80;;;;;;;0.66;100.00;95895.03;3702196;80;43889;-22
2020/12/05 02:51:45;;;;;;;23.63;14.23;;;;;;;0.62;100.00;95875.98;3702389;80;44009;-22
2020/12/05 02:56:50;;;;;;;26.83;14.43;;;;;;;0.59;100.00;95893.04;3726239;79;44090;-22
2020/12/05 03:01:56;;;;;;;24.57;13.67;;;;;;;0.49;100.00;95924.13;3702362;79;43293;-22
2020/12/05 03:07:05;;;;;;;25.33;13.83;;;;;;;0.46;100.00;95946.96;3701457;78;44214;-23
2020/12/05 03:12:10;;;;;;;26.33;13.63;;;;;;;0.08;100.00;95955.70;3707576;79;44609;-23
2020/12/05 03:17:15;;;;;;;26.00;14.07;;;;;;;-0.22;100.00;95904.93;3695422;80;44059;-22
2020/12/05 03:22:21;;;;;;;26.10;14.60;;;;;;;-0.17;100.00;95945.81;3701341;78;43668;-22
2020/12/05 03:27:27;;;;;;;24.93;13.93;;;;;;;-0.10;100.00;95929.30;3701937;79;43270;-22
2020/12/05 03:32:33;;;;;;;26.63;14.80;;;;;;;-0.16;100.00;95929.42;3699710;80;43316;-22
2020/12/05 03:37:39;;;;;;;26.43;13.60;;;;;;;-0.10;100.00;95953.11;3700172;78;43723;-23
2020/12/05 03:42:44;;;;;;;26.10;13.40;;;;;;;-0.16;100.00;95996.91;3711003;79;43390;-23
2020/12/05 03:47:51;;;;;;;28.10;14.83;;;;;;;-0.26;100.00;95947.22;3701611;80;43415;-22
2020/12/05 03:52:57;;;;;;;25.37;13.83;;;;;;;-0.27;100.00;95960.11;3703439;79;43998;-22
2020/12/05 03:58:03;;;;;;;25.27;13.70;;;;;;;-0.11;100.00;95977.44;3681427;80;44046;-22
2020/12/05 04:03:09;;;;;;;26.67;14.03;;;;;;;-0.11;100.00;95976.59;3701656;79;43700;-22
2020/12/05 04:08:15;;;;;;;27.87;14.20;;;;;;;-0.42;100.00;95956.72;3692488;78;43458;-22
2020/12/05 04:13:21;;;;;;;27.60;14.63;;;;;;;-0.21;100.00;95948.92;3703935;79;44045;-22
2020/12/05 04:18:26;;;;;;;26.07;13.67;;;;;;;-0.16;100.00;95917.52;3694835;78;44054;-22
2020/12/05 04:23:32;;;;;;;26.70;13.47;;;;;;;-0.23;100.00;95890.03;3764742;77;43694;-22
2020/12/05 04:28:39;;;;;;;22.40;12.60;;;;;;;-0.48;100.00;95938.33;3757391;77;44084;-22
2020/12/05 04:33:45;;;;;;;24.77;13.60;;;;;;;-0.60;100.00;96000.37;3759846;77;43727;-22
2020/12/05 04:38:51;;;;;;;26.77;14.23;;;;;;;-0.83;100.00;95992.89;3761033;77;43398;-22
2020/12/05 04:43:57;;;;;;;25.80;13.93;;;;;;;-1.00;100.00;96022.75;3753675;77;43716;-22
2020/12/05 04:49:05;;;;;;;25.80;13.63;;;;;;;-1.00;100.00;96098.88;3751319;77;43672;-22
2020/12/05 04:54:10;;;;;;;23.53;13.10;;;;;;;-1.07;100.00;96127.38;3770389;77;44069;-22
2020/12/05 04:59:17;;;;;;;26.27;13.97;;;;;;;-1.22;100.00;96136.25;3759981;79;44444;-23
2020/12/05 05:04:25;;;;;;;28.17;14.07;;;;;;;-1.34;100.00;96126.36;3759811;77;43493;-22
2020/12/05 05:09:34;;;;;;;28.27;14.33;;;;;;;-1.34;100.00;96136.42;3772319;77;43538;-23
2020/12/05 05:14:39;;;;;;;26.37;13.93;;;;;;;-1.37;100.00;96167.10;3758882;77;43701;-22
2020/12/05 05:19:46;;;;;;;25.57;13.97;;;;;;;-1.37;100.00;96190.02;3760019;77;43456;-23
2020/12/05 05:25:06;;;;;;;30.03;14.53;;;;;;;-1.33;100.00;96198.84;3784660;77;43686;-23
2020/12/05 05:30:14;;;;;;;32.30;15.33;;;;;;;-1.29;100.00;96172.97;3749852;79;43036;-22
2020/12/05 05:35:20;;;;;;;28.10;14.40;;;;;;;-1.27;100.00;96189.04;3760456;79;43853;-23
2020/12/05 05:40:27;;;;;;;29.00;13.93;;;;;;;-1.27;100.00;96177.16;3760144;77;43491;-22
2020/12/05 05:45:33;;;;;;;30.60;14.20;;;;;;;-1.23;100.00;96159.70;3759487;77;43375;-23
2020/12/05 05:50:40;;;;;;;30.77;15.37;;;;;;;-1.12;100.00;96185.45;3765070;79;44429;-23
2020/12/05 05:55:47;;;;;;;27.47;14.60;;;;;;;-1.04;100.00;96228.80;3785527;77;43337;-23
2020/12/05 06:00:53;;;;;;;29.10;14.93;;;;;;;-1.14;100.00;96197.14;3761066;77;43891;-23
2020/12/05 06:06:00;;;;;;;27.57;14.63;;;;;;;-0.95;100.00;96229.30;3760818;79;43412;-23
2020/12/05 06:11:10;;;;;;;27.90;14.20;;;;;;;-0.84;100.00;96242.34;3763128;77;44054;-23
2020/12/05 06:16:17;;;;;;;27.27;13.33;;;;;;;-0.79;100.00;96229.50;3760935;77;43490;-23
2020/12/05 06:21:24;;;;;;;27.50;14.37;;;;;;;-0.74;100.00;96213.70;3760346;77;42748;-23
2020/12/05 06:26:32;;;;;;;26.13;13.20;;;;;;;-0.62;100.00;96187.42;3781551;77;43774;-23
2020/12/05 06:31:42;;;;;;;23.97;12.33;;;;;;;-0.50;100.00;96235.17;3760197;77;44074;-23
2020/12/05 06:36:50;;;;;;;23.63;12.87;;;;;;;-0.36;100.00;96243.61;3760954;79;44011;-22
2020/12/05 06:41:56;;;;;;;22.60;12.33;;;;;;;-0.35;100.00;96287.11;3763567;77;44168;-23
2020/12/05 06:47:04;;;;;;;26.67;12.87;;;;;;;-0.11;100.00;96287.06;3761028;79;44051;-23
2020/12/05 06:52:41;;;;;;;21.87;12.07;;;;;;;0.19;100.00;96273.16;3726380;77;43678;-22
2020/12/05 06:57:50;;;;;;;23.77;12.07;;;;;;;0.26;100.00;96279.54;3718302;77;43401;-23
2020/12/05 07:02:58;;;;;;;23.67;11.97;;;;;;;0.43;100.00;96302.20;3756142;79;43814;-23
2020/12/05 07:08:21;;;;;;;22.23;11.77;;;;;;;0.63;100.00;96296.78;3762352;77;43583;-23
2020/12/05 07:13:39;;;;;;;20.03;10.33;;;;;;;0.95;100.00;96320.57;3767375;77;44043;-23
2020/12/05 07:18:46;;;;;;;19.03;10.17;;;;;;;1.26;100.00;96317.48;3759453;79;42688;-23
2020/12/05 07:23:53;;;;;;;21.27;10.40;;;;;;;1.66;100.00;96323.55;3724298;78;44003;-23
2020/12/05 07:28:59;;;;;;;20.27;10.27;;;;;;;1.83;100.00;96368.27;3656451;79;44085;-23
2020/12/05 07:34:05;;;;;;;18.93;10.40;;;;;;;1.91;100.00;96354.72;3699150;80;44082;-24
2020/12/05 07:39:11;;;;;;;18.63;9.63;;;;;;;2.13;100.00;96366.11;3715100;79;44047;-21
2020/12/05 07:44:20;;;;;;;17.77;9.43;;;;;;;2.28;100.00;96373.48;3642408;81;44104;-20
2020/12/05 07:49:26;;;;;;;19.03;10.10;;;;;;;2.41;100.00;96369.86;3696530;80;44643;-23
2020/12/05 07:54:32;;;;;;;17.57;9.17;;;;;;;2.54;100.00;96392.02;3701248;78;44442;-24
2020/12/05 07:59:39;;;;;;;17.70;9.60;;;;;;;2.64;100.00;96421.61;3679556;80;43434;-23
2020/12/05 08:04:56;;;;;;;15.57;8.83;;;;;;;2.83;100.00;96443.11;3663148;79;43462;-23
2020/12/05 08:10:05;;;;;;;15.50;9.60;;;;;;;2.97;100.00;96501.02;3686318;79;43725;-23
2020/12/05 08:15:13;;;;;;;17.67;9.60;;;;;;;2.98;100.00;96525.77;3702273;80;44132;-23
2020/12/05 08:20:19;;;;;;;17.07;9.57;;;;;;;3.07;100.00;96487.08;3702653;80;43399;-23
2020/12/05 08:25:25;;;;;;;15.73;9.03;;;;;;;3.07;100.00;96496.39;3754686;78;44419;-23
2020/12/05 08:30:33;;;;;;;15.40;8.97;;;;;;;3.24;100.00;96504.40;3686254;79;43685;-23
2020/12/05 08:35:38;;;;;;;15.83;9.33;;;;;;;3.31;100.00;96484.63;3732179;78;44048;-22
2020/12/05 08:40:44;;;;;;;16.57;9.30;;;;;;;3.35;100.00;96508.08;3750252;78;43491;-23
2020/12/05 08:45:50;;;;;;;15.27;9.13;;;;;;;3.30;100.00;96574.28;3731515;79;43716;-23
2020/12/05 08:51:06;;;;;;;15.43;8.73;;;;;;;3.42;100.00;96575.32;3731857;78;44176;-24
2020/12/05 08:56:21;;;;;;;15.60;9.17;;;;;;;3.38;100.00;96599.59;3717658;78;44044;-23
2020/12/05 09:01:38;;;;;;;19.97;10.57;;;;;;;3.42;100.00;96608.59;3728824;78;43769;-23
2020/12/05 09:06:43;;;;;;;16.93;10.10;;;;;;;3.45;100.00;96642.89;3726683;78;44450;-23
2020/12/05 09:12:02;;;;;;;17.63;10.23;;;;;;;3.49;100.00;96667.69;3731308;78;44186;-23
2020/12/05 09:17:23;;;;;;;17.27;10.20;;;;;;;3.46;100.00;96709.27;3725831;79;43497;-23
2020/12/05 09:22:31;;;;;;;17.90;10.60;;;;;;;3.52;100.00;96690.01;3720252;77;43394;-24
2020/12/05 09:27:38;;;;;;;20.10;11.13;;;;;;;3.55;100.00;96671.54;3702988;79;44013;-23
2020/12/05 09:32:47;;;;;;;16.53;10.87;;;;;;;3.52;100.00;96715.78;3698470;78;43760;-23
2020/12/05 09:37:55;;;;;;;20.00;12.10;;;;;;;3.53;100.00;96744.08;3703910;79;43681;-23
2020/12/05 09:43:02;;;;;;;20.40;11.83;;;;;;;3.51;100.00;96748.23;3644077;80;44479;-23
2020/12/05 09:48:08;;;;;;;19.00;11.37;;;;;;;3.57;100.00;96737.45;3682849;79;43344;-23
2020/12/05 09:53:14;;;;;;;19.23;11.63;;;;;;;3.60;100.00;96737.11;3707294;79;44897;-24
2020/12/05 09:58:21;;;;;;;20.87;12.03;;;;;;;3.66;100.00;96689.89;3721397;79;43674;-21
2020/12/05 10:03:28;;;;;;;18.37;11.60;;;;;;;3.81;100.00;96690.62;3711738;78;43524;-24
2020/12/05 10:08:36;;;;;;;22.40;12.90;;;;;;;3.92;100.00;96706.30;3722187;79;43722;-22
2020/12/05 10:13:42;;;;;;;19.37;12.27;;;;;;;4.11;98.27;96676.36;3688161;79;44730;-23
2020/12/05 10:18:48;;;;;;;19.90;12.70;;;;;;;4.15;95.99;96711.02;3687817;80;44091;-22
2020/12/05 10:23:53;;;;;;;19.87;12.50;;;;;;;4.13;97.94;96721.83;3727475;77;43329;-22
2020/12/05 10:29:00;;;;;;;20.77;12.70;;;;;;;4.00;94.25;96705.47;3758497;79;44825;-23
2020/12/05 10:34:06;;;;;;;21.47;13.30;;;;;;;4.09;96.57;96707.66;3758369;77;44092;-22
2020/12/05 10:39:13;;;;;;;20.67;12.83;;;;;;;4.04;96.07;96761.44;3756321;77;43672;-22
2020/12/05 10:44:18;;;;;;;21.37;13.30;;;;;;;4.01;94.20;96767.09;3759473;77;43674;-22
2020/12/05 10:49:28;;;;;;;22.33;13.03;;;;;;;4.10;95.45;96773.29;3758500;79;43373;-22
2020/12/05 10:54:32;;;;;;;25.10;14.03;;;;;;;4.15;94.96;96765.66;3761647;77;42812;-22
2020/12/05 10:59:38;;;;;;;22.13;13.57;;;;;;;4.26;95.66;96761.36;3755899;77;44057;-22
2020/12/05 11:04:44;;;;;;;21.13;12.13;;;;;;;4.23;92.36;96733.69;3757028;79;44038;-22
2020/12/05 11:09:50;;;;;;;22.47;13.03;;;;;;;4.24;94.58;96751.35;3746259;77;43423;-23
2020/12/05 11:14:55;;;;;;;23.47;14.13;;;;;;;4.32;94.26;96745.21;3760662;77;44097;-22
2020/12/05 11:20:01;;;;;;;21.03;12.57;;;;;;;4.45;93.15;96742.05;3723795;79;44016;-22
2020/12/05 11:25:07;;;;;;;18.53;11.93;;;;;;;4.42;93.31;96740.56;3726546;78;43991;-22
2020/12/05 11:30:12;;;;;;;20.57;11.93;;;;;;;4.66;96.14;96758.08;3701850;79;44511;-21
2020/12/05 11:35:18;;;;;;;18.63;12.10;;;;;;;4.73;96.37;96765.77;3702257;79;41991;-23
2020/12/05 11:40:25;;;;;;;19.80;11.73;;;;;;;4.74;96.36;96776.27;3708009;78;44281;-22
2020/12/05 11:45:31;;;;;;;18.93;12.00;;;;;;;4.74;95.94;96812.80;3702383;80;43025;-22
2020/12/05 11:50:37;;;;;;;20.97;12.30;;;;;;;4.77;95.61;96796.44;3702451;79;43722;-22
2020/12/05 11:55:43;;;;;;;20.83;12.37;;;;;;;4.65;93.09;96813.75;3727433;79;44043;-22
2020/12/05 12:00:49;;;;;;;21.43;12.80;;;;;;;4.70;95.99;96837.64;3702257;80;43338;-22
2020/12/05 12:05:55;;;;;;;16.63;10.47;;;;;;;4.74;97.33;96848.81;3700647;80;44166;-22
2020/12/05 12:11:01;;;;;;;18.57;10.70;;;;;;;4.67;96.10;96864.62;3726376;78;44090;-21
2020/12/05 12:16:08;;;;;;;17.20;11.10;;;;;;;4.66;95.81;96874.96;3720034;78;43802;-23
2020/12/05 12:21:14;;;;;;;20.10;11.87;;;;;;;4.67;94.57;96869.11;3684091;80;44120;-21
2020/12/05 12:26:20;;;;;;;18.70;11.07;;;;;;;4.66;94.55;96881.63;3699167;78;43726;-22
2020/12/05 12:31:27;;;;;;;17.87;11.40;;;;;;;4.66;95.57;96876.77;3701590;79;43278;-22
2020/12/05 12:36:32;;;;;;;16.53;10.03;;;;;;;4.73;96.21;96883.97;3702599;80;44030;-22
2020/12/05 12:41:39;;;;;;;15.90;9.90;;;;;;;4.72;96.11;96878.30;3703060;79;43723;-22
2020/12/05 12:46:52;;;;;;;16.37;9.07;;;;;;;4.77;97.26;96875.14;3712799;78;43354;-23
2020/12/05 12:51:55;;;;;;;14.90;9.40;;;;;;;4.74;98.29;96882.16;3713384;76;43692;-24
2020/12/05 12:57:01;;;;;;;15.83;9.03;;;;;;;4.76;99.38;96872.16;3703199;80;43361;-22
2020/12/05 13:02:07;;;;;;;14.30;8.67;;;;;;;4.76;98.77;96880.16;3732649;79;44763;-22
2020/12/05 13:07:13;;;;;;;14.13;9.00;;;;;;;4.75;99.79;96865.97;3703137;80;43708;-23
2020/12/05 13:12:20;;;;;;;10.10;6.83;;;;;;;4.80;99.86;96857.48;3702909;80;43373;-23
2020/12/05 13:17:26;;;;;;;12.93;8.07;;;;;;;4.82;100.00;96856.82;3716185;78;43596;-22
2020/12/05 13:22:33;;;;;;;13.67;8.33;;;;;;;4.78;99.30;96849.65;3703078;80;44026;-22
2020/12/05 13:27:39;;;;;;;10.93;7.47;;;;;;;4.77;100.00;96859.13;3669608;78;43449;-23
2020/12/05 13:32:45;;;;;;;13.60;8.47;;;;;;;4.77;100.00;96879.14;3702074;79;43877;-22
2020/12/05 13:37:50;;;;;;;12.90;8.40;;;;;;;4.75;100.00;96897.98;3703012;80;43688;-22
2020/12/05 13:42:56;;;;;;;11.77;7.40;;;;;;;4.76;100.00;96906.84;3708311;79;44037;-22
2020/12/05 13:48:02;;;;;;;14.57;9.03;;;;;;;4.73;100.00;96899.98;3725840;78;44523;-22
2020/12/05 13:53:07;;;;;;;16.00;9.87;;;;;;;4.64;100.00;96882.28;3702943;79;44045;-22
2020/12/05 13:58:13;;;;;;;13.20;7.93;;;;;;;4.60;100.00;96887.11;3711989;79;43330;-22
2020/12/05 14:03:19;;;;;;;12.17;7.90;;;;;;;4.52;100.00;96888.91;3720274;79;43713;-22
2020/12/05 14:08:26;;;;;;;15.13;9.70;;;;;;;4.53;100.00;96897.25;3700829;79;43484;-21
2020/12/05 14:13:34;;;;;;;14.97;9.33;;;;;;;4.46;100.00;96909.91;3715665;79;43549;-23
2020/12/05 14:18:39;;;;;;;28.83;16.77;;;;;;;4.36;100.00;96911.83;3719156;79;43368;-22
2020/12/05 14:23:45;;;;;;;24.73;15.40;;;;;;;4.30;100.00;96923.97;3701724;78;44040;-22
2020/12/05 14:28:51;;;;;;;16.70;10.80;;;;;;;4.32;100.00;96940.64;3685231;79;43074;-22
2020/12/05 14:33:57;;;;;;;15.53;10.00;;;;;;;4.13;100.00;96936.87;3714335;79;43704;-22
2020/12/05 14:39:04;;;;;;;14.60;9.20;;;;;;;4.10;100.00;96940.70;3650509;80;43757;-22
2020/12/05 14:44:10;;;;;;;15.83;10.43;;;;;;;4.08;100.00;96959.16;3711163;79;44577;-22
2020/12/05 14:49:16;;;;;;;16.97;9.77;;;;;;;4.05;100.00;96962.16;3713107;79;43144;-22
2020/12/05 14:54:22;;;;;;;15.10;8.87;;;;;;;3.88;100.00;96960.69;3700266;79;44048;-22
2020/12/05 14:59:28;;;;;;;12.13;8.20;;;;;;;3.83;100.00;96955.83;3715694;78;43521;-22
2020/12/05 15:04:34;;;;;;;13.97;8.57;;;;;;;3.89;100.00;96942.86;3701237;80;43676;-22
2020/12/05 15:09:40;;;;;;;13.40;8.43;;;;;;;3.73;100.00;96933.78;3778128;78;42879;-22
2020/12/05 15:14:48;;;;;;;15.10;9.47;;;;;;;3.70;100.00;96935.41;3737109;78;43358;-22
2020/12/05 15:19:54;;;;;;;13.40;7.80;;;;;;;3.60;100.00;96934.16;3782371;78;43730;-22
2020/12/05 15:25:00;;;;;;;15.23;8.20;;;;;;;3.60;100.00;96932.83;3704224;78;44086;-21
2020/12/05 15:30:06;;;;;;;13.90;8.87;;;;;;;3.57;100.00;96937.16;3727065;78;43586;-21
2020/12/05 15:35:13;;;;;;;15.93;9.13;;;;;;;3.61;100.00;96933.17;3706227;78;44080;-22
2020/12/05 15:40:19;;;;;;;16.87;9.60;;;;;;;3.65;100.00;96917.72;3778039;78;44093;-22
2020/12/05 15:45:26;;;;;;;17.20;9.70;;;;;;;3.60;100.00;96935.49;3705994;78;44439;-22
2020/12/05 15:50:32;;;;;;;15.60;9.50;;;;;;;3.61;100.00;96950.48;3717291;78;43834;-22
2020/12/05 15:55:37;;;;;;;17.10;9.53;;;;;;;3.60;100.00;96955.46;3708884;78;44044;-22
2020/12/05 16:00:43;;;;;;;15.63;9.43;;;;;;;3.60;100.00;96951.98;3737919;78;43708;-22
2020/12/05 16:05:55;;;;;;;15.10;9.03;;;;;;;3.55;100.00;96959.09;3698772;78;43703;-22
2020/12/05 16:10:58;;;;;;;17.30;10.57;;;;;;;3.51;100.00;96947.08;3690976;80;43870;-22
2020/12/05 16:16:04;;;;;;;16.87;11.10;;;;;;;3.42;100.00;96940.01;3746142;78;44035;-22
2020/12/05 16:21:10;;;;;;;18.73;11.70;;;;;;;3.35;100.00;96943.27;3705074;78;43702;-22
2020/12/05 16:26:16;;;;;;;18.73;11.30;;;;;;;3.28;100.00;96918.77;3670748;77;44066;-22
2020/12/05 16:31:25;;;;;;;18.40;11.23;;;;;;;3.27;100.00;96912.59;3761789;77;43052;-21
2020/12/05 16:36:31;;;;;;;18.87;11.17;;;;;;;3.18;100.00;96918.33;3736245;77;43882;-22
2020/12/05 16:41:37;;;;;;;17.83;10.10;;;;;;;3.22;100.00;96908.23;3779382;77;44216;-22
2020/12/05 16:46:44;;;;;;;20.37;10.73;;;;;;;3.26;100.00;96910.09;3802839;77;44090;-21
2020/12/05 16:51:51;;;;;;;16.43;10.03;;;;;;;3.28;100.00;96912.94;3762737;77;44005;-22
2020/12/05 16:56:57;;;;;;;19.77;10.40;;;;;;;3.33;100.00;96918.65;3766725;77;44064;-22
2020/12/05 17:02:03;;;;;;;18.70;11.93;;;;;;;3.37;100.00;96935.97;3757140;77;43361;-22
2020/12/05 17:07:08;;;;;;;34.57;21.07;;;;;;;3.34;100.00;96932.78;3780672;77;44055;-21
2020/12/05 17:12:14;;;;;;;19.57;12.50;;;;;;;3.28;100.00;96931.56;3802963;77;44112;-21
2020/12/05 17:17:20;;;;;;;20.10;12.23;;;;;;;3.07;100.00;96923.87;3794614;77;44554;-22
2020/12/05 17:22:26;;;;;;;21.23;12.77;;;;;;;2.90;100.00;96927.70;3773217;77;43279;-22
2020/12/05 17:27:32;;;;;;;20.13;12.40;;;;;;;2.71;100.00;96918.02;3734380;79;43618;-22
2020/12/05 17:32:38;;;;;;;21.37;13.33;;;;;;;2.65;100.00;96930.56;3726927;79;43679;-23
2020/12/05 17:37:44;;;;;;;20.43;11.60;;;;;;;2.63;100.00;96939.20;3741502;78;44073;-22
2020/12/05 17:42:50;;;;;;;19.10;11.07;;;;;;;2.70;100.00;96932.81;3746378;78;44045;-21
2020/12/05 17:47:56;;;;;;;17.93;11.23;;;;;;;2.75;100.00;96915.89;3753709;78;43190;-22
2020/12/05 17:53:03;;;;;;;17.33;11.20;;;;;;;2.72;100.00;96906.87;3672266;78;43629;-23
2020/12/05 17:58:10;;;;;;;17.77;11.80;;;;;;;2.75;100.00;96933.18;3704119;77;44410;-22
2020/12/05 18:03:16;;;;;;;20.70;12.63;;;;;;;2.71;100.00;96957.91;3680060;79;43705;-21
2020/12/05 18:08:22;;;;;;;18.60;11.53;;;;;;;2.70;100.00;96967.37;3689988;78;43701;-22
2020/12/05 18:13:28;;;;;;;18.43;11.63;;;;;;;2.69;100.00;96965.19;3707240;79;44086;-22
2020/12/05 18:18:35;;;;;;;21.97;12.30;;;;;;;2.70;100.00;96960.22;3730979;78;43754;-21
2020/12/05 18:23:42;;;;;;;22.47;13.37;;;;;;;2.71;100.00;96955.72;3694524;80;43269;-21
2020/12/05 18:28:48;;;;;;;23.20;12.93;;;;;;;2.70;100.00;96952.25;3650330;80;43705;-21
2020/12/05 18:33:55;;;;;;;20.60;12.87;;;;;;;2.71;100.00;96953.92;3707215;78;44194;-21
2020/12/05 18:39:01;;;;;;;22.90;13.90;;;;;;;2.69;100.00;96961.20;3707605;78;43298;-23
2020/12/05 18:44:08;;;;;;;24.73;13.67;;;;;;;2.64;100.00;96938.23;3670943;78;44139;-23
2020/12/05 18:49:14;;;;;;;25.67;14.83;;;;;;;2.65;100.00;96956.33;3697797;76;44088;-23
2020/12/05 18:54:20;;;;;;;21.20;13.33;;;;;;;2.64;100.00;96962.16;3710378;79;44195;-23
2020/12/05 18:59:25;;;;;;;21.23;12.93;;;;;;;2.60;100.00;96954.12;3714284;78;44177;-23
2020/12/05 19:04:32;;;;;;;23.33;13.87;;;;;;;2.60;100.00;96968.73;3711814;79;43029;-23
2020/12/05 19:09:38;;;;;;;25.53;15.27;;;;;;;2.60;100.00;96973.55;3735990;78;43689;-23
2020/12/05 19:14:43;;;;;;;21.97;14.03;;;;;;;2.53;100.00;96954.38;3714729;78;43334;-22
2020/12/05 19:19:49;;;;;;;23.47;14.53;;;;;;;2.53;100.00;96976.97;3712558;78;43125;-22
2020/12/05 19:24:55;;;;;;;22.23;13.63;;;;;;;2.50;100.00;96963.96;3726405;79;43726;-21
2020/12/05 19:30:00;;;;;;;24.00;14.30;;;;;;;2.38;100.00;96978.77;3700061;78;43415;-24
2020/12/05 19:35:06;;;;;;;22.77;13.33;;;;;;;2.34;100.00;96963.26;3710632;79;43479;-23
2020/12/05 19:40:12;;;;;;;22.93;13.73;;;;;;;2.30;100.00;96950.25;3701547;80;44899;-24
2020/12/05 19:45:19;;;;;;;24.53;14.10;;;;;;;2.33;100.00;96933.68;3711627;79;43206;-23
2020/12/05 19:50:24;;;;;;;23.33;14.43;;;;;;;2.40;100.00;96954.69;3701236;80;43809;-24
2020/12/05 19:55:30;;;;;;;24.40;14.80;;;;;;;2.42;100.00;96950.89;3675570;79;44004;-24
2020/12/05 20:00:36;;;;;;;24.73;13.93;;;;;;;2.39;100.00;96964.97;3688171;79;43958;-23
2020/12/05 20:05:42;;;;;;;25.70;15.67;;;;;;;2.41;100.00;96990.41;3680999;79;44186;-23
2020/12/05 20:10:49;;;;;;;27.20;14.70;;;;;;;2.42;100.00;96990.76;3700072;80;44788;-23
2020/12/05 20:15:55;;;;;;;25.83;14.70;;;;;;;2.40;100.00;96960.00;3685462;79;43514;-21
2020/12/05 20:21:01;;;;;;;23.47;14.30;;;;;;;2.48;100.00;96972.06;3674257;79;44097;-24
2020/12/05 20:26:07;;;;;;;27.40;15.57;;;;;;;2.54;100.00;96956.88;3588859;80;43712;-23
2020/12/05 20:31:13;;;;;;;26.23;14.97;;;;;;;2.65;100.00;96935.06;3719484;78;44062;-23
2020/12/05 20:36:22;;;;;;;24.87;14.77;;;;;;;2.82;100.00;96928.95;3726538;79;43152;-23
2020/12/05 20:41:28;;;;;;;24.43;14.57;;;;;;;2.95;100.00;96914.44;3717225;79;44085;-23
2020/12/05 20:46:34;;;;;;;24.97;14.70;;;;;;;2.98;100.00;96926.97;3708596;79;44475;-22
2020/12/05 20:51:39;;;;;;;28.20;15.50;;;;;;;2.89;100.00;96957.09;3736276;79;43717;-24
2020/12/05 20:56:47;;;;;;;28.10;15.57;;;;;;;2.70;100.00;96959.40;3699689;80;44160;-22
2020/12/05 21:01:53;;;;;;;28.70;16.20;;;;;;;2.61;100.00;96967.25;3720683;79;44211;-21
2020/12/05 21:06:59;;;;;;;28.30;14.83;;;;;;;2.55;100.00;96946.59;3727113;79;43422;-24
2020/12/05 21:12:10;;;;;;;28.40;16.00;;;;;;;2.46;100.00;96962.92;3699586;80;43623;-23
2020/12/05 21:17:15;;;;;;;28.40;16.03;;;;;;;2.44;100.00;96959.56;3707308;79;44471;-22
2020/12/05 21:22:21;;;;;;;27.03;16.23;;;;;;;2.48;100.00;96945.98;3688097;79;44177;-21
2020/12/05 21:27:27;;;;;;;29.93;16.53;;;;;;;2.43;100.00;96931.30;3676623;80;44050;-21
2020/12/05 21:32:34;;;;;;;30.53;16.83;;;;;;;2.44;100.00;96958.73;3745848;77;43360;-21
2020/12/05 21:37:42;;;;;;;29.70;17.13;;;;;;;2.47;100.00;96958.42;3704601;78;44501;-21
2020/12/05 21:42:47;;;;;;;31.13;17.53;;;;;;;2.52;100.00;96942.88;3695021;80;44086;-23
2020/12/05 21:47:53;;;;;;;30.27;16.60;;;;;;;2.50;100.00;96928.90;3704430;78;44046;-20
2020/12/05 21:52:58;;;;;;;27.77;15.80;;;;;;;2.44;100.00;96921.02;3761850;77;43141;-23
2020/12/05 21:58:04;;;;;;;28.40;16.13;;;;;;;2.49;100.00;96909.13;3747014;78;44041;-21
2020/12/05 22:03:10;;;;;;;26.17;15.37;;;;;;;2.56;100.00;96911.05;3778064;77;43436;-21
2020/12/05 22:08:17;;;;;;;28.43;15.63;;;;;;;2.55;100.00;96920.48;3658973;80;44098;-23
2020/12/05 22:13:24;;;;;;;27.17;15.63;;;;;;;2.65;100.00;96917.27;3743581;78;43625;-23
2020/12/05 22:18:31;;;;;;;26.80;15.33;;;;;;;2.63;100.00;96921.92;3715133;79;44789;-23
2020/12/05 22:23:37;;;;;;;28.73;16.20;;;;;;;2.66;100.00;96928.77;3673820;80;43379;-22
2020/12/05 22:28:43;;;;;;;31.60;17.20;;;;;;;2.68;100.00;96924.96;3707570;80;43473;-22
2020/12/05 22:33:48;;;;;;;32.90;17.17;;;;;;;2.64;100.00;96912.97;3651040;80;44082;-23
2020/12/05 22:38:54;;;;;;;31.00;17.17;;;;;;;2.57;100.00;96915.86;3779287;78;44579;-22
2020/12/05 22:44:00;;;;;;;28.37;16.73;;;;;;;2.58;100.00;96919.72;3786569;78;43716;-22
2020/12/05 22:49:07;;;;;;;31.00;17.70;;;;;;;2.58;100.00;96904.24;3765975;77;44600;-22
2020/12/05 22:54:13;;;;;;;28.87;16.77;;;;;;;2.58;100.00;96908.23;3648263;80;43061;-22
2020/12/05 22:59:19;;;;;;;31.47;17.03;;;;;;;2.54;100.00;96902.38;3707795;79;43742;-22
2020/12/05 23:04:25;;;;;;;29.67;17.27;;;;;;;2.56;100.00;96880.95;3748486;79;43722;-23
2020/12/05 23:09:30;;;;;;;32.00;18.23;;;;;;;2.54;100.00;96889.09;3701514;79;43465;-22
2020/12/05 23:14:36;;;;;;;29.27;17.07;;;;;;;2.60;100.00;96898.28;3700979;79;43490;-23
2020/12/05 23:19:42;;;;;;;28.97;16.83;;;;;;;2.56;100.00;96876.97;3707255;79;44059;-22
2020/12/05 23:24:48;;;;;;;32.20;17.50;;;;;;;2.57;100.00;96858.70;3725821;79;43749;-22
2020/12/05 23:30:05;;;;;;;31.30;16.83;;;;;;;2.53;100.00;96858.67;3705314;79;44171;-22
2020/12/05 23:35:02;;;;;;;30.13;17.73;;;;;;;2.52;100.00;96815.29;3740609;79;43730;-22